Portada
METAR-TAF:

METAR-TAF

Aeroports :

Capri, Itàlia

latitud: 40-33N, longitud: 014-12E, altitud: 160 m

Observació

L'informe es va fer fa 1 hora i 45 minuts, a les 21:55 UTC
Vent 3 kt del Nord-Est
Temperatura 27°C
Humitat 89%
Pressió 1017 hPa
Visibilitat 10 km o més
sense núvols per sota de 1500 mi sense presència de cumulonimbus.

METAR: LIQC 182155Z 05003KT CAVOK 27/25 Q1017 RMK SKC QUK / QUL / VIS MAR 20 KM VIS MIN 9999

Hora: 01:40 (23:40 UTC)


TAF: manca

Observacions i pronòstics meteorològics de més de 4000 aeroports (METAR i TAF).

Les estacions disponibles són els punts grocs i vermells al mapa.

Posi el ratolí al punt desitjat per veure el nom de l'estació.

Feu clic per veure les observacions i els pronòstics meteorològics.

Per canviar el mapa: feu clic els botons verds amb una creu de color negre per apropar; al botó verd amb un guió per allunyar la imatge; o en les fletxes verdes per a mapes adjacents.


METAR-TAF: